Time;durP1;ratioP1;P1;durP2;ratioP2;P2;SDS_P1;SDS_P2;PMS_P1;PMS_P2;Temp;Humidity;BMP_temperature;BMP_pressure;BME280_temperature;BME280_humidity;BME280_pressure;Samples;Min_cycle;Max_cycle;Signal;HPM_P1;HPM_P2
2022/09/03 00:00:17;;;;;;;0.00;0.00;;;;;;;;;;5050013;28;20044;-60
2022/09/03 00:02:46;;;;;;;0.00;0.00;;;;;;;;;;5051357;28;20484;-59
2022/09/03 00:05:11;;;;;;;0.00;0.00;;;;;;;;;;5055045;28;20466;-59
2022/09/03 00:07:36;;;;;;;0.00;0.00;;;;;;;;;;5057863;28;20024;-59
2022/09/03 00:10:08;;;;;;;0.00;0.00;;;;;;;;;;5054043;28;20345;-59
2022/09/03 00:12:38;;;;;;;0.00;0.00;;;;;;;;;;5054497;28;20081;-60
2022/09/03 00:15:11;;;;;;;0.00;0.00;;;;;;;;;;5058733;28;20024;-59
2022/09/03 00:17:38;;;;;;;0.03;0.03;;;;;;;;;;5053898;28;20032;-59
2022/09/03 00:20:10;;;;;;;0.00;0.00;;;;;;;;;;5056186;28;20025;-59
2022/09/03 00:22:38;;;;;;;0.00;0.00;;;;;;;;;;5056972;28;20110;-59
2022/09/03 00:25:04;;;;;;;0.00;0.00;;;;;;;;;;5057114;28;20346;-59
2022/09/03 00:27:32;;;;;;;0.00;0.00;;;;;;;;;;5057005;28;20049;-59
2022/09/03 00:30:02;;;;;;;0.00;0.00;;;;;;;;;;5054986;28;20037;-59
2022/09/03 00:32:45;;;;;;;0.00;0.00;;;;;;;;;;5051823;28;20110;-59
2022/09/03 00:35:31;;;;;;;0.00;0.00;;;;;;;;;;5050380;28;20036;-60
2022/09/03 00:37:58;;;;;;;0.00;0.00;;;;;;;;;;5049936;28;20033;-58
2022/09/03 00:40:42;;;;;;;0.00;0.00;;;;;;;;;;5050522;28;20031;-59
2022/09/03 00:43:14;;;;;;;0.00;0.00;;;;;;;;;;5049747;28;20024;-58
2022/09/03 00:45:39;;;;;;;0.00;0.00;;;;;;;;;;5051081;28;20021;-59
2022/09/03 00:48:10;;;;;;;0.00;0.00;;;;;;;;;;5054902;28;20017;-59
2022/09/03 00:50:48;;;;;;;0.00;0.00;;;;;;;;;;5052194;28;20118;-60
2022/09/03 00:53:25;;;;;;;0.00;0.00;;;;;;;;;;5051133;28;20021;-59
2022/09/03 00:56:12;;;;;;;0.00;0.00;;;;;;;;;;5052357;28;20048;-60
2022/09/03 00:59:01;;;;;;;0.00;0.00;;;;;;;;;;5052254;28;20055;-59
2022/09/03 01:01:42;;;;;;;0.00;0.00;;;;;;;;;;5048461;28;20041;-58
2022/09/03 01:04:25;;;;;;;0.00;0.00;;;;;;;;;;5051444;28;20288;-59
2022/09/03 01:07:06;;;;;;;0.00;0.00;;;;;;;;;;5052176;28;20021;-59
2022/09/03 01:09:34;;;;;;;0.00;0.00;;;;;;;;;;5052021;28;20037;-59
2022/09/03 01:12:12;;;;;;;0.00;0.00;;;;;;;;;;5051527;28;20695;-60
2022/09/03 01:14:40;;;;;;;0.00;0.00;;;;;;;;;;5051068;28;20028;-59
2022/09/03 01:17:12;;;;;;;0.00;0.00;;;;;;;;;;5052766;28;20035;-60
2022/09/03 01:19:55;;;;;;;0.00;0.00;;;;;;;;;;5050156;28;20044;-60
2022/09/03 01:22:40;;;;;;;0.00;0.00;;;;;;;;;;5049465;28;20032;-59
2022/09/03 01:25:30;;;;;;;0.00;0.00;;;;;;;;;;5048804;28;20083;-60
2022/09/03 01:28:09;;;;;;;0.00;0.00;;;;;;;;;;5047125;28;20040;-59
2022/09/03 01:30:37;;;;;;;0.00;0.00;;;;;;;;;;5049258;28;20038;-59
2022/09/03 01:33:05;;;;;;;0.00;0.00;;;;;;;;;;5049821;28;20120;-59
2022/09/03 01:35:37;;;;;;;0.00;0.00;;;;;;;;;;5050484;28;20428;-59
2022/09/03 01:38:11;;;;;;;0.00;0.00;;;;;;;;;;5049531;28;20045;-60
2022/09/03 01:40:55;;;;;;;0.00;0.00;;;;;;;;;;5050214;28;20021;-60
2022/09/03 01:43:31;;;;;;;0.00;0.00;;;;;;;;;;5049677;28;20301;-60
2022/09/03 01:46:05;;;;;;;0.00;0.00;;;;;;;;;;5049533;28;20024;-60
2022/09/03 01:48:31;;;;;;;0.00;0.00;;;;;;;;;;5049403;28;20830;-58
2022/09/03 01:51:05;;;;;;;0.00;0.00;;;;;;;;;;5049047;28;20025;-59
2022/09/03 01:53:33;;;;;;;0.00;0.00;;;;;;;;;;5049011;28;20274;-59
2022/09/03 01:56:16;;;;;;;0.00;0.00;;;;;;;;;;5049226;28;20028;-59
2022/09/03 01:58:45;;;;;;;0.00;0.00;;;;;;;;;;5049179;28;20539;-59
2022/09/03 02:01:17;;;;;;;0.00;0.00;;;;;;;;;;5048093;28;20079;-60
2022/09/03 02:03:44;;;;;;;0.00;0.00;;;;;;;;;;5049670;28;20177;-59
2022/09/03 02:06:10;;;;;;;0.00;0.00;;;;;;;;;;5048903;28;20013;-59
2022/09/03 02:08:35;;;;;;;0.00;0.00;;;;;;;;;;5048893;28;20363;-60
2022/09/03 02:11:05;;;;;;;0.10;0.10;;;;;;;;;;5048783;28;20032;-59
2022/09/03 02:13:30;;;;;;;;;;;;;;;;;;5051072;28;20377;-60
2022/09/03 02:15:58;;;;;;;0.00;0.00;;;;;;;;;;5048811;28;20331;-59
2022/09/03 02:18:24;;;;;;;0.00;0.00;;;;;;;;;;5048622;28;20462;-60
2022/09/03 02:20:51;;;;;;;0.00;0.00;;;;;;;;;;5048662;28;20028;-58
2022/09/03 02:23:16;;;;;;;0.00;0.00;;;;;;;;;;5048200;28;20021;-60
2022/09/03 02:25:44;;;;;;;0.00;0.00;;;;;;;;;;5048538;28;20021;-59
2022/09/03 02:28:09;;;;;;;0.00;0.00;;;;;;;;;;5047803;28;20023;-59
2022/09/03 02:30:35;;;;;;;0.00;0.00;;;;;;;;;;5049477;28;20017;-59
2022/09/03 02:33:00;;;;;;;0.00;0.00;;;;;;;;;;5050563;28;20086;-59
2022/09/03 02:35:26;;;;;;;0.00;0.00;;;;;;;;;;5053736;28;20033;-60
2022/09/03 02:37:51;;;;;;;0.00;0.00;;;;;;;;;;5055152;28;20393;-61
2022/09/03 02:40:16;;;;;;;0.00;0.00;;;;;;;;;;5055535;28;20029;-61
2022/09/03 02:42:42;;;;;;;0.00;0.00;;;;;;;;;;5054538;28;20752;-59
2022/09/03 02:45:26;;;;;;;0.00;0.00;;;;;;;;;;5049180;28;20037;-60
2022/09/03 02:47:53;;;;;;;0.00;0.00;;;;;;;;;;5050484;28;20025;-61
2022/09/03 02:50:19;;;;;;;0.00;0.00;;;;;;;;;;5049545;28;20066;-59
2022/09/03 02:52:44;;;;;;;0.00;0.00;;;;;;;;;;5050089;28;20025;-59
2022/09/03 02:55:09;;;;;;;0.00;0.00;;;;;;;;;;5049050;28;20013;-60
2022/09/03 02:57:34;;;;;;;0.00;0.00;;;;;;;;;;5048187;28;20406;-61
2022/09/03 03:00:00;;;;;;;0.00;0.00;;;;;;;;;;5049709;28;20456;-61
2022/09/03 03:02:25;;;;;;;0.28;0.28;;;;;;;;;;5049236;28;20527;-61
2022/09/03 03:04:50;;;;;;;0.00;0.00;;;;;;;;;;5048884;28;20059;-59
2022/09/03 03:07:15;;;;;;;0.00;0.00;;;;;;;;;;5047668;28;20029;-59
2022/09/03 03:09:40;;;;;;;0.00;0.00;;;;;;;;;;5049912;28;20517;-59
2022/09/03 03:12:07;;;;;;;0.00;0.00;;;;;;;;;;5048981;28;20486;-60
2022/09/03 03:14:32;;;;;;;0.00;0.00;;;;;;;;;;5052032;28;20021;-59
2022/09/03 03:16:58;;;;;;;0.00;0.00;;;;;;;;;;5051395;28;20033;-59
2022/09/03 03:19:23;;;;;;;0.00;0.00;;;;;;;;;;5051425;28;20029;-60
2022/09/03 03:21:48;;;;;;;0.00;0.00;;;;;;;;;;5051964;28;20028;-59
2022/09/03 03:24:13;;;;;;;0.00;0.00;;;;;;;;;;5051229;28;20017;-60
2022/09/03 03:26:38;;;;;;;0.00;0.00;;;;;;;;;;5051698;28;20028;-58
2022/09/03 03:29:04;;;;;;;0.00;0.00;;;;;;;;;;5053029;28;20425;-59
2022/09/03 03:31:29;;;;;;;0.00;0.00;;;;;;;;;;5052536;28;20025;-59
2022/09/03 03:33:56;;;;;;;0.00;0.00;;;;;;;;;;5054624;28;20278;-59
2022/09/03 03:36:22;;;;;;;0.00;0.00;;;;;;;;;;5052885;28;20017;-59
2022/09/03 03:38:47;;;;;;;0.00;0.00;;;;;;;;;;5052223;28;20112;-58
2022/09/03 03:41:15;;;;;;;0.00;0.00;;;;;;;;;;5053277;28;20036;-59
2022/09/03 03:43:41;;;;;;;0.00;0.00;;;;;;;;;;5054503;28;20025;-60
2022/09/03 03:46:06;;;;;;;0.00;0.00;;;;;;;;;;5055827;28;20033;-60
2022/09/03 03:48:31;;;;;;;0.00;0.00;;;;;;;;;;5052448;28;20116;-58
2022/09/03 03:51:03;;;;;;;0.00;0.00;;;;;;;;;;5052127;28;20107;-59
2022/09/03 03:53:29;;;;;;;0.00;0.00;;;;;;;;;;5051755;28;20079;-60
2022/09/03 03:55:55;;;;;;;0.00;0.00;;;;;;;;;;5053869;28;20021;-58
2022/09/03 03:58:21;;;;;;;0.00;0.00;;;;;;;;;;5052457;28;21431;-59
2022/09/03 04:00:46;;;;;;;0.10;0.10;;;;;;;;;;5051355;28;20094;-60
2022/09/03 04:03:12;;;;;;;0.00;0.00;;;;;;;;;;5054775;28;20075;-60
2022/09/03 04:05:37;;;;;;;0.00;0.00;;;;;;;;;;5052438;28;20086;-62
2022/09/03 04:08:02;;;;;;;0.00;0.00;;;;;;;;;;5051437;28;20063;-59
2022/09/03 04:10:28;;;;;;;0.00;0.00;;;;;;;;;;5051129;28;20033;-61
2022/09/03 04:12:53;;;;;;;0.00;0.00;;;;;;;;;;5051370;28;20029;-59
2022/09/03 04:15:18;;;;;;;0.10;0.10;;;;;;;;;;5050403;28;20025;-59
2022/09/03 04:17:43;;;;;;;0.00;0.00;;;;;;;;;;5050573;28;20029;-59
2022/09/03 04:20:09;;;;;;;0.00;0.00;;;;;;;;;;5049518;28;20021;-59
2022/09/03 04:22:34;;;;;;;0.00;0.00;;;;;;;;;;5050202;28;20021;-60
2022/09/03 04:24:59;;;;;;;0.10;0.10;;;;;;;;;;5049895;28;20063;-61
2022/09/03 04:27:24;;;;;;;0.00;0.00;;;;;;;;;;5050157;28;20098;-61
2022/09/03 04:29:49;;;;;;;0.00;0.00;;;;;;;;;;5050753;28;20268;-58
2022/09/03 04:34:59;;;;;;;1.30;1.27;;;;;;;;;;5050837;28;20251;-61
2022/09/03 04:37:24;;;;;;;0.00;0.00;;;;;;;;;;5050387;28;20028;-61
2022/09/03 04:39:49;;;;;;;0.00;0.00;;;;;;;;;;5050375;28;20036;-61
2022/09/03 04:42:14;;;;;;;0.00;0.00;;;;;;;;;;5050075;28;20048;-60
2022/09/03 04:44:40;;;;;;;0.00;0.00;;;;;;;;;;5050697;28;20025;-60
2022/09/03 04:47:05;;;;;;;0.00;0.00;;;;;;;;;;5050313;28;20075;-60
2022/09/03 04:49:30;;;;;;;0.00;0.00;;;;;;;;;;5049951;28;20476;-60
2022/09/03 04:51:55;;;;;;;0.00;0.00;;;;;;;;;;5049619;28;20031;-59
2022/09/03 04:54:21;;;;;;;0.00;0.00;;;;;;;;;;5049638;28;20023;-60
2022/09/03 04:56:46;;;;;;;0.00;0.00;;;;;;;;;;5049129;28;20406;-60
2022/09/03 04:59:12;;;;;;;0.00;0.00;;;;;;;;;;5050361;28;20370;-58
2022/09/03 05:01:38;;;;;;;0.00;0.00;;;;;;;;;;5051450;28;20497;-59
2022/09/03 05:04:04;;;;;;;0.00;0.00;;;;;;;;;;5050247;28;20083;-59
2022/09/03 05:06:30;;;;;;;0.00;0.00;;;;;;;;;;5051641;28;20037;-61
2022/09/03 05:08:55;;;;;;;0.00;0.00;;;;;;;;;;5049917;28;20037;-60
2022/09/03 05:11:21;;;;;;;0.00;0.00;;;;;;;;;;5048186;28;20107;-60
2022/09/03 05:13:47;;;;;;;0.00;0.00;;;;;;;;;;5049357;28;20496;-60
2022/09/03 05:16:13;;;;;;;0.00;0.00;;;;;;;;;;5048954;28;20103;-60
2022/09/03 05:18:40;;;;;;;0.00;0.00;;;;;;;;;;5049639;28;20517;-60
2022/09/03 05:21:09;;;;;;;0.00;0.00;;;;;;;;;;5048086;28;20044;-61
2022/09/03 05:23:36;;;;;;;0.00;0.00;;;;;;;;;;5047814;28;20096;-58
2022/09/03 05:26:04;;;;;;;2.10;1.65;;;;;;;;;;5049644;28;20036;-60
2022/09/03 05:28:30;;;;;;;0.00;0.00;;;;;;;;;;5050211;28;20017;-59
2022/09/03 05:30:59;;;;;;;0.00;0.00;;;;;;;;;;5049561;28;20032;-58
2022/09/03 05:33:24;;;;;;;0.00;0.00;;;;;;;;;;5048772;28;20062;-60
2022/09/03 05:35:49;;;;;;;0.00;0.00;;;;;;;;;;5050301;28;20033;-60
2022/09/03 05:38:16;;;;;;;0.00;0.00;;;;;;;;;;5051354;28;20028;-61
2022/09/03 05:40:42;;;;;;;0.00;0.00;;;;;;;;;;5049977;28;20040;-60
2022/09/03 05:43:07;;;;;;;0.00;0.00;;;;;;;;;;5050998;28;20021;-61
2022/09/03 05:45:32;;;;;;;0.00;0.00;;;;;;;;;;5050659;28;20094;-60
2022/09/03 05:47:58;;;;;;;0.00;0.00;;;;;;;;;;5049843;28;20025;-60
2022/09/03 05:50:24;;;;;;;0.00;0.00;;;;;;;;;;5047816;28;20533;-60
2022/09/03 05:52:49;;;;;;;0.00;0.00;;;;;;;;;;5051159;28;20027;-61
2022/09/03 05:55:15;;;;;;;0.00;0.00;;;;;;;;;;5048740;28;20099;-60
2022/09/03 05:57:41;;;;;;;0.00;0.00;;;;;;;;;;5048692;28;20049;-61
2022/09/03 06:00:06;;;;;;;0.00;0.00;;;;;;;;;;5049395;28;20527;-60
2022/09/03 06:02:31;;;;;;;0.00;0.00;;;;;;;;;;5048714;28;20029;-59
2022/09/03 06:04:57;;;;;;;0.00;0.00;;;;;;;;;;5048908;28;20021;-58
2022/09/03 06:07:23;;;;;;;0.20;0.20;;;;;;;;;;5048475;28;20055;-59
2022/09/03 06:09:49;;;;;;;0.00;0.00;;;;;;;;;;5050487;28;20021;-59
2022/09/03 06:12:14;;;;;;;0.00;0.00;;;;;;;;;;5048942;28;20037;-60
2022/09/03 06:14:39;;;;;;;0.00;0.00;;;;;;;;;;5048750;28;20096;-59
2022/09/03 06:17:04;;;;;;;0.30;0.30;;;;;;;;;;5048946;28;20024;-59
2022/09/03 06:19:30;;;;;;;0.00;0.00;;;;;;;;;;5051446;28;20481;-60
2022/09/03 06:21:55;;;;;;;0.00;0.00;;;;;;;;;;5050012;28;20021;-58
2022/09/03 06:24:25;;;;;;;0.00;0.00;;;;;;;;;;5049103;28;20067;-60
2022/09/03 06:26:51;;;;;;;0.00;0.00;;;;;;;;;;5047619;28;20025;-61
2022/09/03 06:29:18;;;;;;;0.00;0.00;;;;;;;;;;5048015;28;20036;-61
2022/09/03 06:31:43;;;;;;;0.00;0.00;;;;;;;;;;5048309;28;20029;-59
2022/09/03 06:34:08;;;;;;;0.00;0.00;;;;;;;;;;5048155;28;20378;-60
2022/09/03 06:36:33;;;;;;;0.00;0.00;;;;;;;;;;5048385;28;20032;-61
2022/09/03 06:38:59;;;;;;;1.45;1.45;;;;;;;;;;5048503;28;20101;-60
2022/09/03 06:41:31;;;;;;;0.00;0.00;;;;;;;;;;5048401;28;20080;-61
2022/09/03 06:44:01;;;;;;;0.00;0.00;;;;;;;;;;5049879;28;20036;-61
2022/09/03 06:46:26;;;;;;;0.00;0.00;;;;;;;;;;5053173;28;20461;-61
2022/09/03 06:48:52;;;;;;;0.00;0.00;;;;;;;;;;5052270;28;20032;-60
2022/09/03 06:51:21;;;;;;;0.00;0.00;;;;;;;;;;5052574;28;20484;-59
2022/09/03 06:53:46;;;;;;;;;;;;;;;;;;5053761;28;20032;-59
2022/09/03 06:56:13;;;;;;;0.00;0.00;;;;;;;;;;5052141;28;19909;-59
2022/09/03 06:58:42;;;;;;;0.03;0.03;;;;;;;;;;5053005;28;20063;-59
2022/09/03 07:01:24;;;;;;;0.00;0.00;;;;;;;;;;5055052;28;20381;-58
2022/09/03 07:03:57;;;;;;;0.00;0.00;;;;;;;;;;5054082;28;20434;-60
2022/09/03 07:06:26;;;;;;;0.00;0.00;;;;;;;;;;5052023;28;20595;-59
2022/09/03 07:08:53;;;;;;;0.00;0.00;;;;;;;;;;5050875;28;20477;-62
2022/09/03 07:11:21;;;;;;;0.00;0.00;;;;;;;;;;5051677;28;20021;-58
2022/09/03 07:13:48;;;;;;;0.00;0.00;;;;;;;;;;5052366;28;20037;-57
2022/09/03 07:16:37;;;;;;;0.13;0.13;;;;;;;;;;5050892;28;20391;-58
2022/09/03 07:19:03;;;;;;;0.00;0.00;;;;;;;;;;5049187;28;20037;-58
2022/09/03 07:21:30;;;;;;;0.00;0.00;;;;;;;;;;5050721;28;20033;-58
2022/09/03 07:23:55;;;;;;;0.00;0.00;;;;;;;;;;5053837;28;20109;-58
2022/09/03 07:26:22;;;;;;;0.00;0.00;;;;;;;;;;5051304;28;20498;-59
2022/09/03 07:28:48;;;;;;;0.00;0.00;;;;;;;;;;5051560;28;20098;-59
2022/09/03 07:31:13;;;;;;;3.92;3.83;;;;;;;;;;5051866;28;20458;-58
2022/09/03 07:33:39;;;;;;;0.00;0.00;;;;;;;;;;5051556;28;20029;-58
2022/09/03 07:36:06;;;;;;;0.00;0.00;;;;;;;;;;5052142;28;20354;-59
2022/09/03 07:38:32;;;;;;;0.00;0.00;;;;;;;;;;5051643;28;20404;-59
2022/09/03 07:40:58;;;;;;;0.00;0.00;;;;;;;;;;5051762;28;20116;-59
2022/09/03 07:43:25;;;;;;;0.00;0.00;;;;;;;;;;5051454;28;20465;-60
2022/09/03 07:45:50;;;;;;;0.00;0.00;;;;;;;;;;5051026;28;20024;-60
2022/09/03 07:48:16;;;;;;;0.00;0.00;;;;;;;;;;5051238;28;20025;-59
2022/09/03 07:50:42;;;;;;;0.00;0.00;;;;;;;;;;5050633;28;20106;-59
2022/09/03 07:53:07;;;;;;;0.13;0.13;;;;;;;;;;5050981;28;20082;-59
2022/09/03 07:55:32;;;;;;;0.10;0.10;;;;;;;;;;5048878;28;20098;-59
2022/09/03 07:57:58;;;;;;;0.00;0.00;;;;;;;;;;5050224;28;20049;-59
2022/09/03 08:00:23;;;;;;;0.00;0.00;;;;;;;;;;5051012;28;20071;-58
2022/09/03 08:02:50;;;;;;;0.00;0.00;;;;;;;;;;5053461;28;20020;-58
2022/09/03 08:05:19;;;;;;;0.00;0.00;;;;;;;;;;5047196;28;20612;-59
2022/09/03 08:07:44;;;;;;;0.00;0.00;;;;;;;;;;5051207;28;20052;-60
2022/09/03 08:10:09;;;;;;;0.00;0.00;;;;;;;;;;5050077;28;20125;-59
2022/09/03 08:12:34;;;;;;;0.00;0.00;;;;;;;;;;5049849;28;20987;-58
2022/09/03 08:15:00;;;;;;;0.00;0.00;;;;;;;;;;5048311;28;20506;-58
2022/09/03 08:17:25;;;;;;;0.00;0.00;;;;;;;;;;5049757;28;20108;-60
2022/09/03 08:19:50;;;;;;;0.00;0.00;;;;;;;;;;5049270;28;20032;-59
2022/09/03 08:22:15;;;;;;;0.00;0.00;;;;;;;;;;5051265;28;20079;-59
2022/09/03 08:24:41;;;;;;;0.00;0.00;;;;;;;;;;5051601;28;20040;-59
2022/09/03 08:27:07;;;;;;;0.00;0.00;;;;;;;;;;5051034;28;20070;-60
2022/09/03 08:29:32;;;;;;;0.00;0.00;;;;;;;;;;5050234;28;20017;-60
2022/09/03 08:31:57;;;;;;;0.00;0.00;;;;;;;;;;5050837;28;20021;-59
2022/09/03 08:34:23;;;;;;;0.10;0.10;;;;;;;;;;5050683;28;20810;-58
2022/09/03 08:36:49;;;;;;;0.10;0.00;;;;;;;;;;5050816;28;21347;-58
2022/09/03 08:39:14;;;;;;;0.00;0.00;;;;;;;;;;5051123;28;20029;-58
2022/09/03 08:41:47;;;;;;;0.00;0.00;;;;;;;;;;5050174;28;20106;-60
2022/09/03 08:44:12;;;;;;;0.00;0.00;;;;;;;;;;5048576;28;20123;-60
2022/09/03 08:46:59;;;;;;;0.00;0.00;;;;;;;;;;5049601;28;20095;-60
2022/09/03 08:49:24;;;;;;;0.00;0.00;;;;;;;;;;5048123;28;20260;-60
2022/09/03 08:51:51;;;;;;;0.00;0.00;;;;;;;;;;5050898;28;20035;-60
2022/09/03 08:54:17;;;;;;;0.00;0.00;;;;;;;;;;5048600;28;20263;-59
2022/09/03 08:56:43;;;;;;;0.00;0.00;;;;;;;;;;5048729;28;20405;-59
2022/09/03 08:59:08;;;;;;;0.00;0.00;;;;;;;;;;5049155;28;20044;-59
2022/09/03 09:01:43;;;;;;;0.00;0.00;;;;;;;;;;5051090;28;20017;-58
2022/09/03 09:04:10;;;;;;;0.00;0.00;;;;;;;;;;5050055;28;20048;-58
2022/09/03 09:06:39;;;;;;;0.00;0.00;;;;;;;;;;5047075;28;20029;-59
2022/09/03 09:09:04;;;;;;;0.00;0.00;;;;;;;;;;5051180;28;20029;-59
2022/09/03 09:11:39;;;;;;;0.00;0.00;;;;;;;;;;5049508;28;20032;-59
2022/09/03 09:14:04;;;;;;;0.00;0.00;;;;;;;;;;5049536;28;20021;-60
2022/09/03 09:16:44;;;;;;;0.00;0.00;;;;;;;;;;5048914;28;20079;-59
2022/09/03 09:19:15;;;;;;;0.00;0.00;;;;;;;;;;5048840;28;20043;-59
2022/09/03 09:21:45;;;;;;;0.00;0.00;;;;;;;;;;5047931;28;20040;-60
2022/09/03 09:24:20;;;;;;;0.00;0.00;;;;;;;;;;5047588;28;20017;-60
2022/09/03 09:26:46;;;;;;;0.20;0.20;;;;;;;;;;5048008;28;20033;-59
2022/09/03 09:29:12;;;;;;;0.00;0.00;;;;;;;;;;5048127;28;20025;-59
2022/09/03 09:31:38;;;;;;;0.00;0.00;;;;;;;;;;5048331;28;20128;-57
2022/09/03 09:34:05;;;;;;;0.00;0.00;;;;;;;;;;5049193;28;20021;-59
2022/09/03 09:36:36;;;;;;;0.00;0.00;;;;;;;;;;5048147;28;20032;-58
2022/09/03 09:39:09;;;;;;;0.00;0.00;;;;;;;;;;5048155;28;20485;-59
2022/09/03 09:41:34;;;;;;;0.28;0.28;;;;;;;;;;5046863;28;20025;-58
2022/09/03 09:44:01;;;;;;;0.00;0.00;;;;;;;;;;5048286;28;20020;-58
2022/09/03 09:46:29;;;;;;;0.00;0.00;;;;;;;;;;5048246;28;20096;-59
2022/09/03 09:48:56;;;;;;;0.00;0.00;;;;;;;;;;5048256;28;20017;-59
2022/09/03 09:51:22;;;;;;;0.00;0.00;;;;;;;;;;5047999;28;20033;-58
2022/09/03 09:53:59;;;;;;;0.00;0.00;;;;;;;;;;5049251;28;20031;-57
2022/09/03 09:56:24;;;;;;;0.00;0.00;;;;;;;;;;5047128;28;20103;-58
2022/09/03 09:59:00;;;;;;;0.00;0.00;;;;;;;;;;5048265;28;20135;-58
2022/09/03 10:01:29;;;;;;;0.00;0.00;;;;;;;;;;5047627;28;20025;-59
2022/09/03 10:03:58;;;;;;;0.00;0.00;;;;;;;;;;5048412;28;20016;-59
2022/09/03 10:09:14;;;;;;;0.00;0.00;;;;;;;;;;5046234;28;20169;-59
2022/09/03 10:11:42;;;;;;;0.00;0.00;;;;;;;;;;5047033;28;20478;-60
2022/09/03 10:14:10;;;;;;;0.00;0.00;;;;;;;;;;5049528;28;20124;-59
2022/09/03 10:16:38;;;;;;;0.00;0.00;;;;;;;;;;5049538;28;20036;-59
2022/09/03 10:19:03;;;;;;;0.00;0.00;;;;;;;;;;5048073;28;20112;-59
2022/09/03 10:21:38;;;;;;;0.00;0.00;;;;;;;;;;5050203;28;20152;-59
2022/09/03 10:24:03;;;;;;;0.00;0.00;;;;;;;;;;5049732;28;20763;-59
2022/09/03 10:26:29;;;;;;;0.00;0.00;;;;;;;;;;5048445;28;20021;-59
2022/09/03 10:28:59;;;;;;;2.25;2.17;;;;;;;;;;5049118;28;20050;-59
2022/09/03 10:31:38;;;;;;;0.00;0.00;;;;;;;;;;5048239;28;20025;-59
2022/09/03 10:34:03;;;;;;;;;;;;;;;;;;5048387;28;20052;-59
2022/09/03 10:36:47;;;;;;;0.00;0.00;;;;;;;;;;5050092;28;19912;-60
2022/09/03 10:39:20;;;;;;;0.00;0.00;;;;;;;;;;5046767;28;20413;-59
2022/09/03 10:41:46;;;;;;;0.00;0.00;;;;;;;;;;5048762;28;20385;-59
2022/09/03 10:44:18;;;;;;;0.00;0.00;;;;;;;;;;5048613;28;20108;-60
2022/09/03 10:46:49;;;;;;;0.00;0.00;;;;;;;;;;5048833;28;20127;-59
2022/09/03 10:49:30;;;;;;;0.00;0.00;;;;;;;;;;5047800;28;20032;-59
2022/09/03 10:52:14;;;;;;;0.00;0.00;;;;;;;;;;5047176;28;20020;-59
2022/09/03 10:54:52;;;;;;;0.00;0.00;;;;;;;;;;5046500;28;20033;-59
2022/09/03 10:57:25;;;;;;;0.00;0.00;;;;;;;;;;5046530;28;20567;-60
2022/09/03 10:59:53;;;;;;;0.00;0.00;;;;;;;;;;5047129;28;20112;-58
2022/09/03 11:02:27;;;;;;;0.00;0.00;;;;;;;;;;5046084;28;20021;-59
2022/09/03 11:05:01;;;;;;;0.00;0.00;;;;;;;;;;5047645;28;21404;-60
2022/09/03 11:07:31;;;;;;;0.00;0.00;;;;;;;;;;5046401;28;20532;-59
2022/09/03 11:10:03;;;;;;;0.20;0.20;;;;;;;;;;5047541;28;20049;-60
2022/09/03 11:12:31;;;;;;;0.00;0.00;;;;;;;;;;5045963;28;20865;-61
2022/09/03 11:15:02;;;;;;;0.00;0.00;;;;;;;;;;5045679;28;20478;-59
2022/09/03 11:17:31;;;;;;;0.00;0.00;;;;;;;;;;5047907;28;20428;-60
2022/09/03 11:20:04;;;;;;;0.00;0.00;;;;;;;;;;5048371;28;20029;-60
2022/09/03 11:22:30;;;;;;;0.00;0.00;;;;;;;;;;5048037;28;20075;-60
2022/09/03 11:24:57;;;;;;;1.55;1.52;;;;;;;;;;5048226;28;20445;-59
2022/09/03 11:27:22;;;;;;;0.00;0.00;;;;;;;;;;5047731;28;20079;-58
2022/09/03 11:29:50;;;;;;;0.40;0.38;;;;;;;;;;5048288;28;20037;-59
2022/09/03 11:32:21;;;;;;;0.03;0.03;;;;;;;;;;5053960;28;20082;-58
2022/09/03 11:34:48;;;;;;;0.00;0.00;;;;;;;;;;5056432;28;20033;-59
2022/09/03 11:37:13;;;;;;;0.20;0.20;;;;;;;;;;5053410;28;20032;-58
2022/09/03 11:39:42;;;;;;;0.28;0.28;;;;;;;;;;5050584;28;20025;-58
2022/09/03 11:42:20;;;;;;;0.17;0.15;;;;;;;;;;5053571;28;20025;-59
2022/09/03 11:44:50;;;;;;;0.00;0.00;;;;;;;;;;5053644;28;20025;-60
2022/09/03 11:47:35;;;;;;;0.00;0.00;;;;;;;;;;5055389;28;20024;-57
2022/09/03 11:50:13;;;;;;;0.00;0.00;;;;;;;;;;5054875;28;20106;-59
2022/09/03 11:52:39;;;;;;;0.00;0.00;;;;;;;;;;5055347;28;20436;-57
2022/09/03 11:55:05;;;;;;;0.00;0.00;;;;;;;;;;5057089;28;20025;-59
2022/09/03 11:57:32;;;;;;;0.00;0.00;;;;;;;;;;5055066;28;20049;-60
2022/09/03 12:00:16;;;;;;;0.00;0.00;;;;;;;;;;5057545;28;20025;-59
2022/09/03 12:02:46;;;;;;;0.45;0.45;;;;;;;;;;5056996;28;20453;-60
2022/09/03 12:05:33;;;;;;;0.00;0.00;;;;;;;;;;5049507;28;20467;-60
2022/09/03 12:08:05;;;;;;;0.05;0.05;;;;;;;;;;5051578;28;20112;-58
2022/09/03 12:10:40;;;;;;;0.00;0.00;;;;;;;;;;5053807;28;20060;-59
2022/09/03 12:13:08;;;;;;;0.30;0.30;;;;;;;;;;5057056;28;20024;-59
2022/09/03 12:15:48;;;;;;;0.57;0.57;;;;;;;;;;5054077;28;20370;-60
2022/09/03 12:18:20;;;;;;;1.25;1.25;;;;;;;;;;5051198;28;20028;-60
2022/09/03 12:21:07;;;;;;;0.10;0.10;;;;;;;;;;5052217;28;20091;-64
2022/09/03 12:23:32;;;;;;;0.00;0.00;;;;;;;;;;5050897;28;20058;-58
2022/09/03 12:26:14;;;;;;;0.00;0.00;;;;;;;;;;5050726;28;20424;-60
2022/09/03 12:28:40;;;;;;;0.03;0.03;;;;;;;;;;5052230;28;20048;-58
2022/09/03 12:31:28;;;;;;;0.10;0.10;;;;;;;;;;5050848;28;20035;-59
2022/09/03 12:34:01;;;;;;;0.38;0.30;;;;;;;;;;5050924;28;20062;-60
2022/09/03 12:36:35;;;;;;;0.00;0.00;;;;;;;;;;5051231;28;20029;-60
2022/09/03 12:39:19;;;;;;;0.10;0.10;;;;;;;;;;5049164;28;20047;-59
2022/09/03 12:41:53;;;;;;;0.38;0.38;;;;;;;;;;5048765;28;20079;-59
2022/09/03 12:44:27;;;;;;;0.43;0.43;;;;;;;;;;5050114;28;20017;-60
2022/09/03 12:46:59;;;;;;;0.00;0.00;;;;;;;;;;5051801;28;20055;-60
2022/09/03 12:49:24;;;;;;;0.00;0.00;;;;;;;;;;5049616;28;20017;-60
2022/09/03 12:51:50;;;;;;;0.00;0.00;;;;;;;;;;5050630;28;20488;-59
2022/09/03 12:54:15;;;;;;;0.20;0.20;;;;;;;;;;5050134;28;20775;-59
2022/09/03 12:56:45;;;;;;;0.00;0.00;;;;;;;;;;5048329;28;20055;-58
2022/09/03 12:59:13;;;;;;;0.38;0.38;;;;;;;;;;5049115;28;20673;-60
2022/09/03 13:01:45;;;;;;;0.00;0.00;;;;;;;;;;5047427;28;20583;-59
2022/09/03 13:04:14;;;;;;;0.15;0.15;;;;;;;;;;5050713;28;20688;-57
2022/09/03 13:06:48;;;;;;;0.00;0.00;;;;;;;;;;5049531;28;20097;-59
2022/09/03 13:09:14;;;;;;;0.00;0.00;;;;;;;;;;5053331;28;20120;-59
2022/09/03 13:11:41;;;;;;;0.00;0.00;;;;;;;;;;5050119;28;20024;-58
2022/09/03 13:14:13;;;;;;;2.03;1.17;;;;;;;;;;5051458;28;20718;-58
2022/09/03 13:16:44;;;;;;;0.00;0.00;;;;;;;;;;5050160;28;20017;-60
2022/09/03 13:19:29;;;;;;;0.20;0.20;;;;;;;;;;5050050;28;20025;-58
2022/09/03 13:22:10;;;;;;;0.40;0.40;;;;;;;;;;5048622;28;20036;-57
2022/09/03 13:24:47;;;;;;;0.00;0.00;;;;;;;;;;5047977;28;20036;-61
2022/09/03 13:27:26;;;;;;;0.25;0.25;;;;;;;;;;5048559;28;20524;-60
2022/09/03 13:29:57;;;;;;;1.50;0.93;;;;;;;;;;5048018;28;20024;-60
2022/09/03 13:32:22;;;;;;;0.00;0.00;;;;;;;;;;5048318;28;20041;-58
2022/09/03 13:34:51;;;;;;;0.00;0.00;;;;;;;;;;5048675;28;20438;-61
2022/09/03 13:37:26;;;;;;;0.00;0.00;;;;;;;;;;5048065;28;20637;-61
2022/09/03 13:39:58;;;;;;;17.63;3.65;;;;;;;;;;5046963;28;20420;-61
2022/09/03 13:42:23;;;;;;;0.25;0.25;;;;;;;;;;5049009;28;20284;-60
2022/09/03 13:44:51;;;;;;;0.00;0.00;;;;;;;;;;5047884;28;20032;-60
2022/09/03 13:47:27;;;;;;;0.00;0.00;;;;;;;;;;5049290;28;20274;-59
2022/09/03 13:52:56;;;;;;;0.00;0.00;;;;;;;;;;5048246;28;20043;-61
2022/09/03 13:55:21;;;;;;;0.00;0.00;;;;;;;;;;5045858;28;20370;-61
2022/09/03 13:57:52;;;;;;;0.00;0.00;;;;;;;;;;5048267;28;20049;-61
2022/09/03 14:00:23;;;;;;;0.00;0.00;;;;;;;;;;5045155;28;20106;-61
2022/09/03 14:02:49;;;;;;;0.00;0.00;;;;;;;;;;5047138;28;20021;-60
2022/09/03 14:05:18;;;;;;;0.00;0.00;;;;;;;;;;5049102;28;20028;-62
2022/09/03 14:07:51;;;;;;;1.55;0.15;;;;;;;;;;5046053;28;20103;-60
2022/09/03 14:10:19;;;;;;;0.00;0.00;;;;;;;;;;5048694;28;20044;-60
2022/09/03 14:13:13;;;;;;;2.67;2.47;;;;;;;;;;5049114;28;20348;-62
2022/09/03 14:16:05;;;;;;;0.57;0.57;;;;;;;;;;5028238;28;20065;-60
2022/09/03 14:18:47;;;;;;;0.00;0.00;;;;;;;;;;5048187;28;20382;-59
2022/09/03 14:21:16;;;;;;;0.38;0.30;;;;;;;;;;5047851;28;20073;-60
2022/09/03 14:23:47;;;;;;;0.00;0.00;;;;;;;;;;5047998;28;20074;-60
2022/09/03 14:26:17;;;;;;;0.00;0.00;;;;;;;;;;5048339;28;20029;-60
2022/09/03 14:28:45;;;;;;;0.00;0.00;;;;;;;;;;5047389;28;20159;-58
2022/09/03 14:31:26;;;;;;;0.00;0.00;;;;;;;;;;5048523;28;21730;-58
2022/09/03 14:33:59;;;;;;;0.08;0.08;;;;;;;;;;5048560;28;20021;-59
2022/09/03 14:36:39;;;;;;;0.00;0.00;;;;;;;;;;5048717;28;20025;-57
2022/09/03 14:39:07;;;;;;;0.00;0.00;;;;;;;;;;5050127;28;20060;-59
2022/09/03 14:41:44;;;;;;;0.00;0.00;;;;;;;;;;5047756;28;20028;-59
2022/09/03 14:44:21;;;;;;;0.13;0.13;;;;;;;;;;5050632;28;20017;-59
2022/09/03 14:46:49;;;;;;;0.00;0.00;;;;;;;;;;5048762;28;20086;-60
2022/09/03 14:49:19;;;;;;;0.00;0.00;;;;;;;;;;5048298;28;20017;-58
2022/09/03 14:51:47;;;;;;;0.45;0.43;;;;;;;;;;5049678;28;20021;-59
2022/09/03 14:54:26;;;;;;;0.00;0.00;;;;;;;;;;5047034;28;20028;-59
2022/09/03 14:57:13;;;;;;;0.00;0.00;;;;;;;;;;5047167;28;20053;-59
2022/09/03 14:59:57;;;;;;;0.00;0.00;;;;;;;;;;5051997;28;20074;-58
2022/09/03 15:02:40;;;;;;;0.00;0.00;;;;;;;;;;5052188;28;20033;-58
2022/09/03 15:05:10;;;;;;;0.00;0.00;;;;;;;;;;5054574;28;20111;-58